Llano, TX

2:16 AM CDT on October 31, 2014 (GMT -0500)
Buchanan Dam | Change Station
CLOSE
Current Station
Personal Weather Station
Location: Buchanan Dam, TX
Elevation: 1076 ft
Nearby Weather Stations

Elev 1076 ft 30.74 °N, 98.45 °W | Updated 1 minute ago

Overcast
Overcast
66.7 °F
Feels Like 66.7 °F
N
2.0
Wind Variable Wind from ENE
Gusts 7.0 mph

Today
High -- | Low -- °F
--% Chance of Precip.
Yesterday
High -- | Low -- °F
Precip. -- in
7:48 AM 6:47 PM
First Quarter, 52% visible
Pressure 30.21 in
Visibility 10.0 miles
Clouds Scattered Clouds 4200 ft
Mostly Cloudy 4900 ft
Mostly Cloudy 6000 ft
Dew Point 62 °F
Humidity 85%
Rainfall 0.00 in
Snow Depth Not available.
UV 0 out of 12
Pollen 5.10 out of 12
Air Quality Not available.
Flu Activity Not available.
METAR KAQO 310650Z AUTO 05005KT 10SM VCTS SCT042 BKN049 BKN060 19/16 A3021 RMK AO2 LTG DSNT S AND SW P0001

More Conditions Fewer Conditions

Pressure 30.21 in
Visibility 10.0 miles
Clouds Scattered Clouds 4200 ft
Mostly Cloudy 4900 ft
Mostly Cloudy 6000 ft
Dew Point 62 °F
Humidity 85%
Rainfall 0.00 in
Snow Depth Not available.
UV 0 out of 12
Pollen 5.10 out of 12
Air Quality Not available.
Flu Activity Not available.
METAR KAQO 310650Z AUTO 05005KT 10SM VCTS SCT042 BKN049 BKN060 19/16 A3021 RMK AO2 LTG DSNT S AND SW P0001

More Conditions Fewer Conditions

Nowcast | as of 2:12 am CDT on October 31, 2014

Through 4 am...showers and thunderstorms along a Westhoff to New Braunfels to Fredericksburg to Rocksprings line and along a Bellville to Granger to Austin to Brady line will move to the south at 15 to 20 mph. Rainfall amounts will average one quarter inch or less with isolated amounts up to 2 inches possible.

×

10-Day Weather Forecast

Almanac

Astronomy

Oct. 31, 2014 Rise Set
Actual Time
Civil Twilight
Nautical Twilight
Astronomical Twilight
Moon
Length of Visible Light
Length of Day
Tomorrow will be .
, % of the Moon is Illuminated

Today's Extremes

State Highs State Lows

Community

WunderPhotos

Upload Photos

1,766,571 photos uploaded!

WunderBlogs® & News

Nearby

Air Quality

  Air Quality AQ Index Pollutant
Not available.

Snow Depth

Station Depth Elevation

Earthquake Activity

City Distance Mag. Time & Date
Minimum magnitude displayed is 2.5.

Coastal Water Temperatures

Place Temperature

Nearby Weather Stations